createdAt,value
2022-09-12T00:00:10.959Z,13.26
2022-09-12T00:02:39.995Z,13.30
2022-09-12T00:05:07.323Z,13.24
2022-09-12T00:07:34.035Z,13.24
2022-09-12T00:10:00.848Z,13.26
2022-09-12T00:12:27.211Z,13.31
2022-09-12T00:14:53.568Z,13.25
2022-09-12T00:17:19.973Z,13.27
2022-09-12T00:19:46.371Z,13.22
2022-09-12T00:22:12.755Z,13.15
2022-09-12T00:24:40.771Z,13.14
2022-09-12T00:27:07.142Z,13.07
2022-09-12T00:29:33.499Z,13.11
2022-09-12T00:31:59.954Z,13.08
2022-09-12T00:34:26.362Z,13.04
2022-09-12T00:36:52.814Z,12.98
2022-09-12T00:39:19.726Z,12.97
2022-09-12T00:41:46.190Z,12.93
2022-09-12T00:44:12.475Z,12.98
2022-09-12T00:46:41.587Z,12.91
2022-09-12T00:49:15.956Z,12.96
2022-09-12T00:51:48.599Z,12.93
2022-09-12T00:54:19.497Z,12.88
2022-09-12T00:56:50.500Z,12.86
2022-09-12T00:59:29.296Z,12.89
2022-09-12T01:01:56.414Z,12.85
2022-09-12T01:04:25.542Z,12.82
2022-09-12T01:06:53.301Z,12.76
2022-09-12T01:09:22.312Z,12.72
2022-09-12T01:11:50.502Z,12.74
2022-09-12T01:14:18.613Z,12.75
2022-09-12T01:16:47.223Z,12.62
2022-09-12T01:19:35.073Z,12.62
2022-09-12T01:22:36.506Z,12.59
2022-09-12T01:25:24.477Z,12.54
2022-09-12T01:28:23.471Z,12.59
2022-09-12T01:31:01.043Z,12.55
2022-09-12T01:33:48.343Z,12.58
2022-09-12T01:36:36.896Z,12.46
2022-09-12T01:39:20.534Z,12.44
2022-09-12T01:42:05.041Z,12.40
2022-09-12T01:44:39.735Z,12.37
2022-09-12T01:47:16.324Z,12.38
2022-09-12T01:49:57.841Z,12.33
2022-09-12T01:52:32.172Z,12.34
2022-09-12T01:55:10.685Z,12.30
2022-09-12T01:57:46.815Z,12.22
2022-09-12T02:00:14.073Z,12.15
2022-09-12T02:02:43.269Z,12.17
2022-09-12T02:05:16.215Z,12.14
2022-09-12T02:07:51.762Z,12.06
2022-09-12T02:10:23.011Z,11.92
2022-09-12T02:13:03.571Z,11.93
2022-09-12T02:15:43.171Z,12.02
2022-09-12T02:18:14.395Z,12.00
2022-09-12T02:20:50.285Z,11.87
2022-09-12T02:23:24.949Z,11.90
2022-09-12T02:25:56.126Z,11.83
2022-09-12T02:28:35.896Z,11.83
2022-09-12T02:31:14.827Z,11.85
2022-09-12T02:33:53.530Z,11.84
2022-09-12T02:36:37.457Z,11.85
2022-09-12T02:39:04.175Z,11.86
2022-09-12T02:41:30.631Z,11.88
2022-09-12T02:43:57.240Z,11.84
2022-09-12T02:46:26.439Z,11.83
2022-09-12T02:48:53.997Z,11.83
2022-09-12T02:51:23.827Z,11.82
2022-09-12T02:53:51.314Z,11.78
2022-09-12T02:56:27.211Z,11.76
2022-09-12T02:58:56.288Z,11.82
2022-09-12T03:01:55.913Z,11.78
2022-09-12T03:04:38.438Z,11.77
2022-09-12T03:07:12.424Z,11.82
2022-09-12T03:10:07.923Z,11.83
2022-09-12T03:12:42.960Z,11.78
2022-09-12T03:15:24.615Z,11.79
2022-09-12T03:18:14.537Z,11.78
2022-09-12T03:21:01.250Z,11.73
2022-09-12T03:23:50.633Z,11.69
2022-09-12T03:26:26.454Z,11.71
2022-09-12T03:28:55.756Z,11.63
2022-09-12T03:31:22.284Z,11.58
2022-09-12T03:33:48.609Z,11.62
2022-09-12T03:36:25.865Z,11.54
2022-09-12T03:38:52.500Z,11.55
2022-09-12T03:41:19.099Z,11.50
2022-09-12T03:43:46.106Z,11.55
2022-09-12T03:46:13.544Z,11.47
2022-09-12T03:48:40.964Z,11.42
2022-09-12T03:51:09.995Z,11.43
2022-09-12T03:53:36.978Z,11.38
2022-09-12T03:56:12.079Z,11.34
2022-09-12T03:58:39.580Z,11.33
2022-09-12T04:01:12.606Z,11.33
2022-09-12T04:03:47.654Z,11.32
2022-09-12T04:06:17.686Z,11.27
2022-09-12T04:08:47.484Z,11.30
2022-09-12T04:11:15.326Z,11.35
2022-09-12T04:13:43.571Z,11.31
2022-09-12T04:16:11.142Z,11.28
2022-09-12T04:18:37.992Z,11.27
2022-09-12T04:21:09.261Z,11.20
2022-09-12T04:23:36.212Z,11.16
2022-09-12T04:26:06.406Z,11.14
2022-09-12T04:28:34.462Z,11.10
2022-09-12T04:31:07.459Z,11.13
2022-09-12T04:33:35.325Z,11.09
2022-09-12T04:36:14.526Z,11.08
2022-09-12T04:38:41.186Z,11.08
2022-09-12T04:41:28.569Z,11.04
2022-09-12T04:44:04.143Z,11.00
2022-09-12T04:46:33.909Z,11.03
2022-09-12T04:49:00.295Z,11.03
2022-09-12T04:51:33.665Z,11.01
2022-09-12T04:54:06.387Z,11.01
2022-09-12T04:56:34.211Z,11.01
2022-09-12T04:59:01.406Z,11.03
2022-09-12T05:01:30.080Z,11.04
2022-09-12T05:03:57.979Z,10.99
2022-09-12T05:06:27.655Z,11.03
2022-09-12T05:08:56.028Z,11.04
2022-09-12T05:11:36.857Z,11.00
2022-09-12T05:14:12.815Z,10.99
2022-09-12T05:16:39.427Z,10.93
2022-09-12T05:19:05.857Z,10.93
2022-09-12T05:21:32.389Z,10.90
2022-09-12T05:24:00.104Z,10.94
2022-09-12T05:26:27.142Z,11.03
2022-09-12T05:28:54.318Z,11.02
2022-09-12T05:31:23.366Z,10.95
2022-09-12T05:33:51.477Z,10.92
2022-09-12T05:36:23.960Z,10.98
2022-09-12T05:38:50.799Z,10.92
2022-09-12T05:41:24.213Z,10.98
2022-09-12T05:43:53.780Z,10.97
2022-09-12T05:46:22.839Z,11.06
2022-09-12T05:48:55.115Z,11.08
2022-09-12T05:51:28.409Z,11.00
2022-09-12T05:53:59.877Z,11.02
2022-09-12T05:56:28.688Z,11.01
2022-09-12T05:58:57.964Z,11.07
2022-09-12T06:01:27.043Z,11.06
2022-09-12T06:03:55.211Z,11.23
2022-09-12T06:06:24.336Z,11.23
2022-09-12T06:08:53.144Z,11.37
2022-09-12T06:11:22.947Z,11.41
2022-09-12T06:13:50.875Z,11.53
2022-09-12T06:16:20.129Z,11.53
2022-09-12T06:18:48.803Z,11.62
2022-09-12T06:21:15.683Z,11.66
2022-09-12T06:23:42.635Z,11.77
2022-09-12T06:26:10.855Z,11.97
2022-09-12T06:28:40.333Z,12.07
2022-09-12T06:31:08.045Z,12.07
2022-09-12T06:33:36.031Z,12.14
2022-09-12T06:36:12.047Z,12.22
2022-09-12T06:38:39.823Z,12.34
2022-09-12T06:41:12.194Z,12.38
2022-09-12T06:43:40.340Z,12.52
2022-09-12T06:46:07.524Z,12.99
2022-09-12T06:48:38.311Z,13.35
2022-09-12T06:51:11.386Z,13.57
2022-09-12T06:53:38.086Z,13.83
2022-09-12T06:56:15.676Z,14.10
2022-09-12T06:58:43.545Z,14.66
2022-09-12T07:01:14.363Z,15.08
2022-09-12T07:03:41.835Z,15.01
2022-09-12T07:06:13.675Z,15.34
2022-09-12T07:08:40.958Z,15.39
2022-09-12T07:11:11.896Z,15.96
2022-09-12T07:13:39.687Z,16.13
2022-09-12T07:16:06.580Z,15.92
2022-09-12T07:18:34.611Z,16.56
2022-09-12T07:21:02.249Z,16.81
2022-09-12T07:23:30.209Z,16.89
2022-09-12T07:25:58.591Z,17.13
2022-09-12T07:28:30.600Z,17.73
2022-09-12T07:30:57.885Z,18.23
2022-09-12T07:33:27.719Z,17.78
2022-09-12T07:35:54.388Z,17.93
2022-09-12T07:38:21.553Z,17.62
2022-09-12T07:40:48.128Z,17.79
2022-09-12T07:43:14.579Z,18.33
2022-09-12T07:45:42.272Z,18.79
2022-09-12T07:48:09.515Z,18.87
2022-09-12T07:50:36.682Z,18.62
2022-09-12T07:53:06.548Z,19.38
2022-09-12T07:55:33.107Z,20.39
2022-09-12T07:57:59.577Z,20.04
2022-09-12T08:00:26.607Z,20.41
2022-09-12T08:02:53.845Z,20.40
2022-09-12T08:05:20.747Z,19.73
2022-09-12T08:07:47.627Z,20.07
2022-09-12T08:10:14.129Z,20.17
2022-09-12T08:12:40.479Z,20.20
2022-09-12T08:15:07.235Z,20.29
2022-09-12T08:17:33.644Z,21.01
2022-09-12T08:20:00.011Z,21.53
2022-09-12T08:22:26.375Z,21.78
2022-09-12T08:24:52.815Z,22.24
2022-09-12T08:27:19.180Z,22.84
2022-09-12T08:29:45.601Z,23.05
2022-09-12T08:32:12.020Z,23.29
2022-09-12T08:34:38.428Z,23.55
2022-09-12T08:37:05.526Z,24.11
2022-09-12T08:39:32.659Z,23.81
2022-09-12T08:42:03.914Z,23.78
2022-09-12T08:44:42.467Z,23.06
2022-09-12T08:47:27.415Z,23.32
2022-09-12T08:50:12.128Z,23.42
2022-09-12T08:52:41.777Z,23.49
2022-09-12T08:55:31.198Z,23.04
2022-09-12T08:58:00.642Z,22.86
2022-09-12T09:00:56.292Z,23.50
2022-09-12T09:04:04.705Z,24.05
2022-09-12T09:07:07.686Z,24.53
2022-09-12T09:10:07.636Z,24.89
2022-09-12T09:12:48.559Z,24.46
2022-09-12T09:15:24.665Z,24.83
2022-09-12T09:17:58.002Z,24.02
2022-09-12T09:20:32.415Z,24.15
2022-09-12T09:23:03.458Z,24.43
2022-09-12T09:25:42.406Z,24.24
2022-09-12T09:28:19.131Z,24.61
2022-09-12T09:30:46.339Z,24.14
2022-09-12T09:33:21.397Z,24.58
2022-09-12T09:35:56.660Z,24.34
2022-09-12T09:38:49.140Z,23.29
2022-09-12T09:41:27.518Z,23.43
2022-09-12T09:43:54.088Z,23.66
2022-09-12T09:46:20.654Z,23.64
2022-09-12T09:48:49.970Z,23.58
2022-09-12T09:51:26.936Z,24.18
2022-09-12T09:53:58.592Z,24.03
2022-09-12T09:56:36.637Z,24.40
2022-09-12T09:59:15.142Z,23.84
2022-09-12T10:01:51.858Z,24.02
2022-09-12T10:04:23.346Z,23.60
2022-09-12T10:06:56.074Z,23.83
2022-09-12T10:09:28.023Z,23.88
2022-09-12T10:11:56.316Z,24.27
2022-09-12T10:14:38.716Z,24.77
2022-09-12T10:17:33.861Z,24.70
2022-09-12T10:22:48.089Z,24.23
2022-09-12T10:25:18.488Z,24.85
2022-09-12T10:27:44.912Z,24.78
2022-09-12T10:30:14.325Z,25.52
2022-09-12T10:32:44.033Z,25.66
2022-09-12T10:35:30.396Z,25.95
2022-09-12T10:38:27.404Z,26.67
2022-09-12T10:41:01.186Z,26.18
2022-09-12T10:43:33.447Z,25.89
2022-09-12T10:46:15.557Z,26.24
2022-09-12T10:48:43.108Z,26.89
2022-09-12T10:51:26.005Z,26.90
2022-09-12T10:53:59.289Z,26.46
2022-09-12T10:56:32.992Z,26.34
2022-09-12T10:59:05.390Z,26.98
2022-09-12T11:01:45.708Z,26.28
2022-09-12T11:04:34.049Z,26.39
2022-09-12T11:07:16.655Z,26.83
2022-09-12T11:09:57.843Z,26.47
2022-09-12T11:13:02.443Z,27.31
2022-09-12T11:15:39.510Z,26.52
2022-09-12T11:18:44.955Z,26.84
2022-09-12T11:21:23.301Z,26.95
2022-09-12T11:24:18.530Z,26.38
2022-09-12T11:26:53.500Z,26.43
2022-09-12T11:29:33.669Z,26.28
2022-09-12T11:32:35.282Z,26.84
2022-09-12T11:35:17.597Z,26.69
2022-09-12T11:38:08.192Z,26.12
2022-09-12T11:40:59.919Z,26.31
2022-09-12T11:43:38.427Z,26.10
2022-09-12T11:46:14.133Z,26.36
2022-09-12T11:48:48.793Z,25.83
2022-09-12T11:51:19.755Z,25.87
2022-09-12T11:54:22.223Z,25.84
2022-09-12T11:56:55.546Z,25.59
2022-09-12T11:59:39.307Z,26.18
2022-09-12T12:02:12.296Z,25.78
2022-09-12T12:04:48.348Z,26.65
2022-09-12T12:07:15.257Z,26.35
2022-09-12T12:09:50.169Z,26.03
2022-09-12T12:12:22.711Z,26.50
2022-09-12T12:14:52.160Z,26.57
2022-09-12T12:17:26.092Z,26.94
2022-09-12T12:20:08.173Z,27.55
2022-09-12T12:22:35.122Z,26.97
2022-09-12T12:25:29.012Z,26.88
2022-09-12T12:28:01.323Z,26.53
2022-09-12T12:30:30.669Z,26.21
2022-09-12T12:33:01.944Z,26.36
2022-09-12T12:35:46.190Z,25.91
2022-09-12T12:38:33.162Z,26.36
2022-09-12T12:41:23.514Z,26.36
2022-09-12T12:43:52.352Z,26.24
2022-09-12T12:46:22.752Z,26.47
2022-09-12T12:48:55.355Z,26.54
2022-09-12T12:51:32.982Z,26.93
2022-09-12T12:54:02.836Z,26.50
2022-09-12T12:56:42.424Z,26.95
2022-09-12T12:59:22.304Z,26.70
2022-09-12T13:01:55.396Z,26.77
2022-09-12T13:04:24.801Z,26.53
2022-09-12T13:06:58.987Z,26.83
2022-09-12T13:09:37.467Z,26.86
2022-09-12T13:12:08.448Z,26.51
2022-09-12T13:14:43.759Z,26.42
2022-09-12T13:17:24.110Z,26.94
2022-09-12T13:20:10.853Z,26.65
2022-09-12T13:22:43.624Z,26.86
2022-09-12T13:25:28.510Z,26.74
2022-09-12T13:27:58.855Z,26.71
2022-09-12T13:30:26.347Z,26.93
2022-09-12T13:32:53.687Z,26.88
2022-09-12T13:35:41.070Z,26.47
2022-09-12T13:38:46.782Z,26.66
2022-09-12T13:41:19.392Z,27.07
2022-09-12T13:43:47.669Z,27.13
2022-09-12T13:46:21.609Z,27.15
2022-09-12T13:48:48.660Z,27.27
2022-09-12T13:51:27.579Z,27.29
2022-09-12T13:53:57.680Z,26.94
2022-09-12T13:56:24.336Z,27.32
2022-09-12T13:58:56.824Z,27.28
2022-09-12T14:01:25.435Z,27.46
2022-09-12T14:04:13.287Z,26.99
2022-09-12T14:06:51.583Z,27.16
2022-09-12T14:09:32.052Z,27.29
2022-09-12T14:11:59.158Z,27.41
2022-09-12T14:14:34.079Z,27.30
2022-09-12T14:17:00.573Z,27.57
2022-09-12T14:19:29.069Z,27.07
2022-09-12T14:21:57.437Z,27.37
2022-09-12T14:24:24.289Z,27.24
2022-09-12T14:26:54.088Z,27.04
2022-09-12T14:29:21.889Z,27.49
2022-09-12T14:32:01.340Z,27.61
2022-09-12T14:34:27.986Z,27.89
2022-09-12T14:36:56.218Z,27.93
2022-09-12T14:39:37.656Z,28.46
2022-09-12T14:42:12.165Z,28.41
2022-09-12T14:44:39.357Z,28.50
2022-09-12T14:47:14.985Z,28.85
2022-09-12T14:49:42.224Z,29.25
2022-09-12T14:52:24.790Z,28.37
2022-09-12T14:55:03.506Z,28.79
2022-09-12T14:57:33.313Z,28.87
2022-09-12T15:00:26.237Z,29.31
2022-09-12T15:02:52.996Z,29.70
2022-09-12T15:05:25.458Z,29.92
2022-09-12T15:07:54.011Z,29.60
2022-09-12T15:10:26.524Z,29.22
2022-09-12T15:13:11.888Z,28.66
2022-09-12T15:15:39.496Z,28.23
2022-09-12T15:18:06.999Z,28.56
2022-09-12T15:20:37.212Z,29.05
2022-09-12T15:23:05.114Z,28.92
2022-09-12T15:25:31.592Z,28.78
2022-09-12T15:27:57.994Z,28.94
2022-09-12T15:30:24.390Z,28.84
2022-09-12T15:32:50.767Z,28.66
2022-09-12T15:35:19.273Z,28.59
2022-09-12T15:37:45.667Z,28.78
2022-09-12T15:40:13.092Z,28.61
2022-09-12T15:42:39.836Z,28.28
2022-09-12T15:45:14.477Z,27.94
2022-09-12T15:47:40.891Z,27.71
2022-09-12T15:50:07.551Z,27.72
2022-09-12T15:52:34.510Z,27.38
2022-09-12T15:55:01.119Z,26.94
2022-09-12T15:57:27.515Z,26.50
2022-09-12T15:59:54.650Z,26.40
2022-09-12T16:02:21.072Z,25.81
2022-09-12T16:04:48.048Z,25.48
2022-09-12T16:07:14.895Z,25.42
2022-09-12T16:09:41.600Z,24.84
2022-09-12T16:12:09.661Z,24.85
2022-09-12T16:14:36.093Z,24.96
2022-09-12T16:17:02.468Z,24.89
2022-09-12T16:19:28.982Z,24.87
2022-09-12T16:21:55.356Z,24.58
2022-09-12T16:24:21.820Z,24.67
2022-09-12T16:26:48.178Z,24.71
2022-09-12T16:29:14.851Z,24.60
2022-09-12T16:31:41.379Z,24.60
2022-09-12T16:34:07.871Z,24.54
2022-09-12T16:36:34.345Z,24.53
2022-09-12T16:39:00.880Z,24.39
2022-09-12T16:41:27.422Z,24.17
2022-09-12T16:43:54.875Z,24.04
2022-09-12T16:46:30.207Z,24.09
2022-09-12T16:48:58.349Z,24.00
2022-09-12T16:51:33.649Z,23.97
2022-09-12T16:54:00.307Z,23.45
2022-09-12T16:56:26.747Z,23.30
2022-09-12T16:58:53.598Z,23.32
2022-09-12T17:01:26.268Z,22.93
2022-09-12T17:03:56.986Z,22.82
2022-09-12T17:06:33.053Z,22.71
2022-09-12T17:09:05.599Z,22.70
2022-09-12T17:11:35.067Z,22.62
2022-09-12T17:14:05.465Z,22.58
2022-09-12T17:16:35.452Z,22.27
2022-09-12T17:19:02.454Z,22.11
2022-09-12T17:21:29.033Z,22.04
2022-09-12T17:23:55.449Z,21.87
2022-09-12T17:26:22.163Z,21.66
2022-09-12T17:28:48.807Z,21.54
2022-09-12T17:31:17.765Z,21.44
2022-09-12T17:33:45.386Z,21.41
2022-09-12T17:36:15.282Z,21.34
2022-09-12T17:38:43.581Z,21.11
2022-09-12T17:41:15.927Z,21.07
2022-09-12T17:43:42.409Z,20.97
2022-09-12T17:46:08.927Z,20.81
2022-09-12T17:48:35.891Z,20.77
2022-09-12T17:51:13.467Z,20.63
2022-09-12T17:53:41.001Z,20.50
2022-09-12T17:56:08.174Z,20.36
2022-09-12T17:58:35.236Z,20.15
2022-09-12T18:01:20.981Z,20.15
2022-09-12T18:03:47.986Z,20.19
2022-09-12T18:06:15.023Z,20.14
2022-09-12T18:08:41.465Z,19.96
2022-09-12T18:11:08.154Z,19.83
2022-09-12T18:13:34.973Z,19.73
2022-09-12T18:16:10.213Z,19.74
2022-09-12T18:18:37.652Z,19.72
2022-09-12T18:21:06.073Z,19.63
2022-09-12T18:23:33.339Z,19.60
2022-09-12T18:26:01.966Z,19.50
2022-09-12T18:28:28.376Z,19.42
2022-09-12T18:30:54.999Z,19.34
2022-09-12T18:33:24.101Z,19.18
2022-09-12T18:35:50.974Z,19.06
2022-09-12T18:38:17.952Z,18.88
2022-09-12T18:40:44.547Z,18.83
2022-09-12T18:43:11.069Z,18.76
2022-09-12T18:45:37.589Z,18.66
2022-09-12T18:48:06.012Z,18.58
2022-09-12T18:50:32.965Z,18.52
2022-09-12T18:53:00.031Z,18.39
2022-09-12T18:55:26.655Z,18.32
2022-09-12T18:57:55.075Z,18.26
2022-09-12T19:00:21.693Z,18.31
2022-09-12T19:02:48.112Z,18.15
2022-09-12T19:05:14.645Z,18.12
2022-09-12T19:07:41.370Z,18.10
2022-09-12T19:10:09.057Z,18.09
2022-09-12T19:12:35.677Z,17.95
2022-09-12T19:15:02.665Z,17.87
2022-09-12T19:17:29.608Z,17.82
2022-09-12T19:19:56.307Z,17.72
2022-09-12T19:22:22.784Z,17.72
2022-09-12T19:24:49.236Z,17.70
2022-09-12T19:27:16.176Z,17.63
2022-09-12T19:29:42.616Z,17.51
2022-09-12T19:32:08.915Z,17.41
2022-09-12T19:34:35.303Z,17.36
2022-09-12T19:37:02.125Z,17.32
2022-09-12T19:39:28.525Z,17.26
2022-09-12T19:41:55.177Z,17.17
2022-09-12T19:44:21.782Z,17.17
2022-09-12T19:46:48.335Z,17.17
2022-09-12T19:49:15.005Z,17.07
2022-09-12T19:51:41.733Z,16.99
2022-09-12T19:54:08.243Z,16.93
2022-09-12T19:56:34.694Z,16.93
2022-09-12T19:59:01.003Z,16.88
2022-09-12T20:01:28.451Z,16.82
2022-09-12T20:03:56.485Z,16.77
2022-09-12T20:06:23.463Z,16.75
2022-09-12T20:08:49.970Z,16.73
2022-09-12T20:11:18.989Z,16.67
2022-09-12T20:13:46.310Z,16.63
2022-09-12T20:16:21.811Z,16.57
2022-09-12T20:18:53.623Z,16.49
2022-09-12T20:21:24.818Z,16.46
2022-09-12T20:23:51.217Z,16.37
2022-09-12T20:26:17.624Z,16.41
2022-09-12T20:28:43.990Z,16.29
2022-09-12T20:31:13.047Z,16.24
2022-09-12T20:33:40.037Z,16.22
2022-09-12T20:36:15.970Z,16.17
2022-09-12T20:38:47.955Z,16.16
2022-09-12T20:41:14.648Z,16.16
2022-09-12T20:43:41.043Z,16.10
2022-09-12T20:46:12.018Z,16.00
2022-09-12T20:48:39.144Z,16.04
2022-09-12T20:51:06.772Z,16.05
2022-09-12T20:53:35.246Z,15.94
2022-09-12T20:56:03.240Z,15.92
2022-09-12T20:58:29.800Z,15.85
2022-09-12T21:00:56.125Z,15.81
2022-09-12T21:03:22.721Z,15.82
2022-09-12T21:05:49.101Z,15.78
2022-09-12T21:08:15.663Z,15.75
2022-09-12T21:10:43.431Z,15.80
2022-09-12T21:13:10.890Z,15.73
2022-09-12T21:15:41.061Z,15.76
2022-09-12T21:18:07.989Z,15.82
2022-09-12T21:20:34.924Z,15.82
2022-09-12T21:23:01.428Z,15.79
2022-09-12T21:25:28.993Z,15.72
2022-09-12T21:27:55.334Z,15.75
2022-09-12T21:30:22.204Z,15.74
2022-09-12T21:32:48.599Z,15.71
2022-09-12T21:35:16.150Z,15.61
2022-09-12T21:37:42.676Z,15.59
2022-09-12T21:40:09.168Z,15.53
2022-09-12T21:42:35.569Z,15.52
2022-09-12T21:45:02.156Z,15.54
2022-09-12T21:47:28.532Z,15.44
2022-09-12T21:49:55.246Z,15.41
2022-09-12T21:52:21.964Z,15.48
2022-09-12T21:54:48.335Z,15.40
2022-09-12T21:57:14.720Z,15.43
2022-09-12T21:59:41.381Z,15.41
2022-09-12T22:02:08.612Z,15.35
2022-09-12T22:04:35.073Z,15.30
2022-09-12T22:07:02.204Z,15.25
2022-09-12T22:09:28.556Z,15.22
2022-09-12T22:11:55.514Z,15.12
2022-09-12T22:14:21.935Z,15.09
2022-09-12T22:16:49.340Z,15.14
2022-09-12T22:19:15.766Z,15.08
2022-09-12T22:22:02.220Z,14.98
2022-09-12T22:24:28.934Z,15.02
2022-09-12T22:26:57.138Z,14.93
2022-09-12T22:29:23.549Z,14.94
2022-09-12T22:31:50.274Z,14.94
2022-09-12T22:34:16.816Z,14.88
2022-09-12T22:36:43.209Z,14.99
2022-09-12T22:39:09.666Z,14.95
2022-09-12T22:41:36.155Z,14.94
2022-09-12T22:44:02.546Z,14.97
2022-09-12T22:46:30.439Z,14.89
2022-09-12T22:48:56.916Z,14.86
2022-09-12T22:51:23.734Z,14.80
2022-09-12T22:53:50.107Z,14.77
2022-09-12T22:56:16.462Z,14.79
2022-09-12T22:58:43.513Z,14.75
2022-09-12T23:01:10.334Z,14.78
2022-09-12T23:03:37.266Z,14.79
2022-09-12T23:06:04.798Z,14.71
2022-09-12T23:08:31.930Z,14.69
2022-09-12T23:11:06.378Z,14.66
2022-09-12T23:13:33.223Z,14.63
2022-09-12T23:16:00.781Z,14.61
2022-09-12T23:18:27.492Z,14.58
2022-09-12T23:21:06.501Z,14.58
2022-09-12T23:23:33.336Z,14.57
2022-09-12T23:26:09.016Z,14.58
2022-09-12T23:28:35.939Z,14.49
2022-09-12T23:31:02.425Z,14.56
2022-09-12T23:33:29.538Z,14.48
2022-09-12T23:36:14.425Z,14.61
2022-09-12T23:38:43.315Z,14.52
2022-09-12T23:41:11.258Z,14.47
2022-09-12T23:43:38.689Z,14.51
2022-09-12T23:46:06.044Z,14.51
2022-09-12T23:48:33.109Z,14.41
2022-09-12T23:51:00.362Z,14.39
2022-09-12T23:53:27.176Z,14.36
2022-09-12T23:55:53.844Z,14.33
2022-09-12T23:58:22.227Z,14.24
